sensor_id;sensor_type;location;lat;lon;timestamp;P1;durP1;ratioP1;P2;durP2;ratioP2
76065;SDS011;64763;48.928;8.474;2023-04-25T00:00:33;5.03;;;3.20;;
76065;SDS011;64763;48.928;8.474;2023-04-25T00:02:59;4.68;;;3.22;;
76065;SDS011;64763;48.928;8.474;2023-04-25T00:05:25;4.72;;;3.17;;
76065;SDS011;64763;48.928;8.474;2023-04-25T00:07:51;5.22;;;3.13;;
76065;SDS011;64763;48.928;8.474;2023-04-25T00:10:16;5.60;;;3.30;;
76065;SDS011;64763;48.928;8.474;2023-04-25T00:12:42;4.72;;;3.05;;
76065;SDS011;64763;48.928;8.474;2023-04-25T00:15:07;6.55;;;3.28;;
76065;SDS011;64763;48.928;8.474;2023-04-25T00:17:34;3.47;;;2.70;;
76065;SDS011;64763;48.928;8.474;2023-04-25T00:20:00;4.10;;;2.85;;
76065;SDS011;64763;48.928;8.474;2023-04-25T00:22:26;4.78;;;2.85;;
76065;SDS011;64763;48.928;8.474;2023-04-25T00:24:51;4.85;;;3.20;;
76065;SDS011;64763;48.928;8.474;2023-04-25T00:27:18;5.22;;;3.50;;
76065;SDS011;64763;48.928;8.474;2023-04-25T00:29:43;6.47;;;3.08;;
76065;SDS011;64763;48.928;8.474;2023-04-25T00:32:09;4.75;;;3.35;;
76065;SDS011;64763;48.928;8.474;2023-04-25T00:34:35;4.78;;;3.17;;
76065;SDS011;64763;48.928;8.474;2023-04-25T00:37:00;4.75;;;3.20;;
76065;SDS011;64763;48.928;8.474;2023-04-25T00:39:27;5.03;;;3.15;;
76065;SDS011;64763;48.928;8.474;2023-04-25T00:41:52;4.75;;;3.17;;
76065;SDS011;64763;48.928;8.474;2023-04-25T00:44:19;4.82;;;3.50;;
76065;SDS011;64763;48.928;8.474;2023-04-25T00:46:46;7.03;;;3.80;;
76065;SDS011;64763;48.928;8.474;2023-04-25T00:49:12;4.55;;;3.42;;
76065;SDS011;64763;48.928;8.474;2023-04-25T00:51:40;6.10;;;3.42;;
76065;SDS011;64763;48.928;8.474;2023-04-25T00:54:06;7.10;;;3.40;;
76065;SDS011;64763;48.928;8.474;2023-04-25T00:56:31;5.20;;;3.50;;
76065;SDS011;64763;48.928;8.474;2023-04-25T00:58:57;6.28;;;4.32;;
76065;SDS011;64763;48.928;8.474;2023-04-25T01:01:22;4.85;;;3.53;;
76065;SDS011;64763;48.928;8.474;2023-04-25T01:03:48;6.63;;;3.70;;
76065;SDS011;64763;48.928;8.474;2023-04-25T01:06:17;6.65;;;3.80;;
76065;SDS011;64763;48.928;8.474;2023-04-25T01:08:42;4.80;;;3.22;;
76065;SDS011;64763;48.928;8.474;2023-04-25T01:11:08;7.63;;;3.53;;
76065;SDS011;64763;48.928;8.474;2023-04-25T01:13:34;4.65;;;3.17;;
76065;SDS011;64763;48.928;8.474;2023-04-25T01:16:00;5.32;;;3.63;;
76065;SDS011;64763;48.928;8.474;2023-04-25T01:18:26;5.35;;;3.33;;
76065;SDS011;64763;48.928;8.474;2023-04-25T01:20:51;4.50;;;3.47;;
76065;SDS011;64763;48.928;8.474;2023-04-25T01:23:17;6.75;;;3.65;;
76065;SDS011;64763;48.928;8.474;2023-04-25T01:25:43;5.40;;;3.78;;
76065;SDS011;64763;48.928;8.474;2023-04-25T01:28:09;4.43;;;2.70;;
76065;SDS011;64763;48.928;8.474;2023-04-25T01:30:35;5.63;;;3.30;;
76065;SDS011;64763;48.928;8.474;2023-04-25T01:33:00;6.15;;;3.35;;
76065;SDS011;64763;48.928;8.474;2023-04-25T01:35:26;4.35;;;3.20;;
76065;SDS011;64763;48.928;8.474;2023-04-25T01:37:51;5.55;;;2.90;;
76065;SDS011;64763;48.928;8.474;2023-04-25T01:40:17;5.38;;;3.00;;
76065;SDS011;64763;48.928;8.474;2023-04-25T01:42:43;9.30;;;3.50;;
76065;SDS011;64763;48.928;8.474;2023-04-25T01:45:10;4.47;;;2.60;;
76065;SDS011;64763;48.928;8.474;2023-04-25T01:47:36;6.40;;;3.38;;
76065;SDS011;64763;48.928;8.474;2023-04-25T01:50:05;6.53;;;3.30;;
76065;SDS011;64763;48.928;8.474;2023-04-25T01:52:31;6.05;;;3.30;;
76065;SDS011;64763;48.928;8.474;2023-04-25T01:54:57;5.88;;;3.03;;
76065;SDS011;64763;48.928;8.474;2023-04-25T01:57:22;5.05;;;3.30;;
76065;SDS011;64763;48.928;8.474;2023-04-25T01:59:48;4.30;;;3.08;;
76065;SDS011;64763;48.928;8.474;2023-04-25T02:02:14;6.28;;;2.90;;
76065;SDS011;64763;48.928;8.474;2023-04-25T02:04:39;4.63;;;2.97;;
76065;SDS011;64763;48.928;8.474;2023-04-25T02:07:04;4.85;;;3.10;;
76065;SDS011;64763;48.928;8.474;2023-04-25T02:09:30;4.55;;;2.97;;
76065;SDS011;64763;48.928;8.474;2023-04-25T02:11:55;4.57;;;3.28;;
76065;SDS011;64763;48.928;8.474;2023-04-25T02:14:21;4.53;;;2.90;;
76065;SDS011;64763;48.928;8.474;2023-04-25T02:16:46;6.90;;;3.40;;
76065;SDS011;64763;48.928;8.474;2023-04-25T02:19:12;6.05;;;3.80;;
76065;SDS011;64763;48.928;8.474;2023-04-25T02:21:37;5.28;;;3.17;;
76065;SDS011;64763;48.928;8.474;2023-04-25T02:24:03;5.88;;;3.65;;
76065;SDS011;64763;48.928;8.474;2023-04-25T02:26:29;7.28;;;3.42;;
76065;SDS011;64763;48.928;8.474;2023-04-25T02:28:54;4.82;;;3.47;;
76065;SDS011;64763;48.928;8.474;2023-04-25T02:31:20;5.75;;;4.10;;
76065;SDS011;64763;48.928;8.474;2023-04-25T02:33:46;7.13;;;3.58;;
76065;SDS011;64763;48.928;8.474;2023-04-25T02:36:12;5.13;;;3.38;;
76065;SDS011;64763;48.928;8.474;2023-04-25T02:38:37;5.18;;;3.17;;
76065;SDS011;64763;48.928;8.474;2023-04-25T02:41:03;5.75;;;3.20;;
76065;SDS011;64763;48.928;8.474;2023-04-25T02:43:28;5.53;;;3.50;;
76065;SDS011;64763;48.928;8.474;2023-04-25T02:45:54;5.07;;;3.28;;
76065;SDS011;64763;48.928;8.474;2023-04-25T02:48:20;4.72;;;3.45;;
76065;SDS011;64763;48.928;8.474;2023-04-25T02:50:45;5.03;;;3.22;;
76065;SDS011;64763;48.928;8.474;2023-04-25T02:53:10;6.93;;;3.30;;
76065;SDS011;64763;48.928;8.474;2023-04-25T02:55:36;5.00;;;3.22;;
76065;SDS011;64763;48.928;8.474;2023-04-25T02:58:01;5.05;;;3.50;;
76065;SDS011;64763;48.928;8.474;2023-04-25T03:00:27;5.75;;;3.78;;
76065;SDS011;64763;48.928;8.474;2023-04-25T03:02:52;4.22;;;2.88;;
76065;SDS011;64763;48.928;8.474;2023-04-25T03:05:17;5.78;;;3.15;;
76065;SDS011;64763;48.928;8.474;2023-04-25T03:07:43;4.75;;;3.05;;
76065;SDS011;64763;48.928;8.474;2023-04-25T03:10:09;5.80;;;3.20;;
76065;SDS011;64763;48.928;8.474;2023-04-25T03:12:35;5.97;;;3.72;;
76065;SDS011;64763;48.928;8.474;2023-04-25T03:15:00;5.68;;;3.33;;
76065;SDS011;64763;48.928;8.474;2023-04-25T03:17:26;6.20;;;3.53;;
76065;SDS011;64763;48.928;8.474;2023-04-25T03:19:51;5.35;;;3.97;;
76065;SDS011;64763;48.928;8.474;2023-04-25T03:22:16;6.38;;;3.63;;
76065;SDS011;64763;48.928;8.474;2023-04-25T03:24:42;5.25;;;3.33;;
76065;SDS011;64763;48.928;8.474;2023-04-25T03:27:08;5.82;;;3.63;;
76065;SDS011;64763;48.928;8.474;2023-04-25T03:29:34;7.90;;;4.00;;
76065;SDS011;64763;48.928;8.474;2023-04-25T03:31:59;5.50;;;3.33;;
76065;SDS011;64763;48.928;8.474;2023-04-25T03:34:24;5.13;;;3.65;;
76065;SDS011;64763;48.928;8.474;2023-04-25T03:36:50;5.05;;;3.00;;
76065;SDS011;64763;48.928;8.474;2023-04-25T03:39:16;4.32;;;3.15;;
76065;SDS011;64763;48.928;8.474;2023-04-25T03:41:41;4.53;;;2.92;;
76065;SDS011;64763;48.928;8.474;2023-04-25T03:44:10;4.57;;;2.90;;
76065;SDS011;64763;48.928;8.474;2023-04-25T03:46:35;5.18;;;3.22;;
76065;SDS011;64763;48.928;8.474;2023-04-25T03:49:00;5.55;;;3.40;;
76065;SDS011;64763;48.928;8.474;2023-04-25T03:51:26;5.63;;;3.05;;
76065;SDS011;64763;48.928;8.474;2023-04-25T03:53:51;7.70;;;3.60;;
76065;SDS011;64763;48.928;8.474;2023-04-25T03:56:17;5.07;;;3.50;;
76065;SDS011;64763;48.928;8.474;2023-04-25T03:58:43;6.03;;;3.30;;
76065;SDS011;64763;48.928;8.474;2023-04-25T04:01:08;5.05;;;2.97;;
76065;SDS011;64763;48.928;8.474;2023-04-25T04:03:34;4.55;;;2.97;;
76065;SDS011;64763;48.928;8.474;2023-04-25T04:06:03;4.82;;;3.20;;
76065;SDS011;64763;48.928;8.474;2023-04-25T04:08:29;4.68;;;2.95;;
76065;SDS011;64763;48.928;8.474;2023-04-25T04:10:55;5.20;;;3.15;;
76065;SDS011;64763;48.928;8.474;2023-04-25T04:13:22;4.47;;;3.20;;
76065;SDS011;64763;48.928;8.474;2023-04-25T04:15:47;4.82;;;3.20;;
76065;SDS011;64763;48.928;8.474;2023-04-25T04:18:12;6.78;;;3.35;;
76065;SDS011;64763;48.928;8.474;2023-04-25T04:20:38;4.93;;;3.45;;
76065;SDS011;64763;48.928;8.474;2023-04-25T04:23:03;5.50;;;3.50;;
76065;SDS011;64763;48.928;8.474;2023-04-25T04:25:28;6.22;;;3.47;;
76065;SDS011;64763;48.928;8.474;2023-04-25T04:27:55;8.55;;;4.35;;
76065;SDS011;64763;48.928;8.474;2023-04-25T04:30:23;6.03;;;3.47;;
76065;SDS011;64763;48.928;8.474;2023-04-25T04:32:52;6.07;;;3.92;;
76065;SDS011;64763;48.928;8.474;2023-04-25T04:35:17;5.20;;;3.92;;
76065;SDS011;64763;48.928;8.474;2023-04-25T04:37:42;7.28;;;4.15;;
76065;SDS011;64763;48.928;8.474;2023-04-25T04:40:08;5.80;;;3.35;;
76065;SDS011;64763;48.928;8.474;2023-04-25T04:42:34;5.20;;;3.60;;
76065;SDS011;64763;48.928;8.474;2023-04-25T04:45:01;7.18;;;3.88;;
76065;SDS011;64763;48.928;8.474;2023-04-25T04:47:26;6.78;;;4.53;;
76065;SDS011;64763;48.928;8.474;2023-04-25T04:49:55;6.57;;;3.80;;
76065;SDS011;64763;48.928;8.474;2023-04-25T04:52:21;6.70;;;4.00;;
76065;SDS011;64763;48.928;8.474;2023-04-25T04:54:46;6.28;;;3.97;;
76065;SDS011;64763;48.928;8.474;2023-04-25T04:57:11;5.43;;;3.40;;
76065;SDS011;64763;48.928;8.474;2023-04-25T04:59:37;6.55;;;4.15;;
76065;SDS011;64763;48.928;8.474;2023-04-25T05:02:02;6.78;;;3.75;;
76065;SDS011;64763;48.928;8.474;2023-04-25T05:04:27;7.57;;;3.90;;
76065;SDS011;64763;48.928;8.474;2023-04-25T05:06:53;5.90;;;3.67;;
76065;SDS011;64763;48.928;8.474;2023-04-25T05:09:18;6.45;;;3.90;;
76065;SDS011;64763;48.928;8.474;2023-04-25T05:11:44;5.20;;;3.60;;
76065;SDS011;64763;48.928;8.474;2023-04-25T05:14:09;5.72;;;3.70;;
76065;SDS011;64763;48.928;8.474;2023-04-25T05:16:34;5.75;;;4.13;;
76065;SDS011;64763;48.928;8.474;2023-04-25T05:19:00;4.82;;;3.60;;
76065;SDS011;64763;48.928;8.474;2023-04-25T05:21:25;7.07;;;4.70;;
76065;SDS011;64763;48.928;8.474;2023-04-25T05:23:52;7.22;;;4.53;;
76065;SDS011;64763;48.928;8.474;2023-04-25T05:26:17;7.25;;;4.80;;
76065;SDS011;64763;48.928;8.474;2023-04-25T05:28:42;6.78;;;4.32;;
76065;SDS011;64763;48.928;8.474;2023-04-25T05:31:11;7.22;;;4.32;;
76065;SDS011;64763;48.928;8.474;2023-04-25T05:33:37;7.03;;;4.50;;
76065;SDS011;64763;48.928;8.474;2023-04-25T05:36:02;5.43;;;3.67;;
76065;SDS011;64763;48.928;8.474;2023-04-25T05:38:28;5.65;;;3.65;;
76065;SDS011;64763;48.928;8.474;2023-04-25T05:40:53;7.10;;;3.95;;
76065;SDS011;64763;48.928;8.474;2023-04-25T05:43:18;6.57;;;4.05;;
76065;SDS011;64763;48.928;8.474;2023-04-25T05:45:44;5.00;;;3.40;;
76065;SDS011;64763;48.928;8.474;2023-04-25T05:48:09;4.90;;;3.38;;
76065;SDS011;64763;48.928;8.474;2023-04-25T05:50:34;5.22;;;3.58;;
76065;SDS011;64763;48.928;8.474;2023-04-25T05:53:00;6.57;;;3.78;;
76065;SDS011;64763;48.928;8.474;2023-04-25T05:55:25;5.60;;;4.13;;
76065;SDS011;64763;48.928;8.474;2023-04-25T05:57:50;6.03;;;3.65;;
76065;SDS011;64763;48.928;8.474;2023-04-25T06:00:16;8.00;;;4.03;;
76065;SDS011;64763;48.928;8.474;2023-04-25T06:02:41;7.85;;;3.45;;
76065;SDS011;64763;48.928;8.474;2023-04-25T06:05:07;6.80;;;3.83;;
76065;SDS011;64763;48.928;8.474;2023-04-25T06:07:33;6.97;;;3.65;;
76065;SDS011;64763;48.928;8.474;2023-04-25T06:09:58;5.60;;;3.85;;
76065;SDS011;64763;48.928;8.474;2023-04-25T06:12:25;7.25;;;3.65;;
76065;SDS011;64763;48.928;8.474;2023-04-25T06:14:51;6.40;;;4.28;;
76065;SDS011;64763;48.928;8.474;2023-04-25T06:17:16;6.25;;;3.75;;
76065;SDS011;64763;48.928;8.474;2023-04-25T06:19:43;6.13;;;3.63;;
76065;SDS011;64763;48.928;8.474;2023-04-25T06:22:08;6.05;;;3.90;;
76065;SDS011;64763;48.928;8.474;2023-04-25T06:24:33;9.18;;;5.10;;
76065;SDS011;64763;48.928;8.474;2023-04-25T06:26:59;5.85;;;4.05;;
76065;SDS011;64763;48.928;8.474;2023-04-25T06:29:25;8.02;;;4.80;;
76065;SDS011;64763;48.928;8.474;2023-04-25T06:31:50;7.10;;;4.18;;
76065;SDS011;64763;48.928;8.474;2023-04-25T06:34:16;6.63;;;3.70;;
76065;SDS011;64763;48.928;8.474;2023-04-25T06:36:41;5.32;;;3.35;;
76065;SDS011;64763;48.928;8.474;2023-04-25T06:39:06;5.78;;;3.55;;
76065;SDS011;64763;48.928;8.474;2023-04-25T06:41:32;5.13;;;3.65;;
76065;SDS011;64763;48.928;8.474;2023-04-25T06:43:57;5.82;;;3.83;;
76065;SDS011;64763;48.928;8.474;2023-04-25T06:46:22;5.45;;;3.47;;
76065;SDS011;64763;48.928;8.474;2023-04-25T06:48:48;6.70;;;3.90;;
76065;SDS011;64763;48.928;8.474;2023-04-25T06:51:13;6.00;;;3.90;;
76065;SDS011;64763;48.928;8.474;2023-04-25T06:53:39;7.00;;;3.90;;
76065;SDS011;64763;48.928;8.474;2023-04-25T06:56:04;8.35;;;3.50;;
76065;SDS011;64763;48.928;8.474;2023-04-25T06:58:30;5.95;;;3.78;;
76065;SDS011;64763;48.928;8.474;2023-04-25T07:00:56;6.32;;;3.85;;
76065;SDS011;64763;48.928;8.474;2023-04-25T07:03:21;7.30;;;3.97;;
76065;SDS011;64763;48.928;8.474;2023-04-25T07:05:47;6.72;;;4.38;;
76065;SDS011;64763;48.928;8.474;2023-04-25T07:08:12;6.72;;;4.15;;
76065;SDS011;64763;48.928;8.474;2023-04-25T07:10:37;5.82;;;3.75;;
76065;SDS011;64763;48.928;8.474;2023-04-25T07:13:03;13.45;;;4.88;;
76065;SDS011;64763;48.928;8.474;2023-04-25T07:15:28;12.23;;;4.10;;
76065;SDS011;64763;48.928;8.474;2023-04-25T07:17:53;5.97;;;4.07;;
76065;SDS011;64763;48.928;8.474;2023-04-25T07:20:19;6.18;;;3.92;;
76065;SDS011;64763;48.928;8.474;2023-04-25T07:22:44;6.22;;;4.30;;
76065;SDS011;64763;48.928;8.474;2023-04-25T07:25:10;4.93;;;3.42;;
76065;SDS011;64763;48.928;8.474;2023-04-25T07:27:35;5.95;;;4.32;;
76065;SDS011;64763;48.928;8.474;2023-04-25T07:30:00;6.05;;;3.58;;
76065;SDS011;64763;48.928;8.474;2023-04-25T07:32:26;7.18;;;4.22;;
76065;SDS011;64763;48.928;8.474;2023-04-25T07:34:51;11.25;;;5.13;;
76065;SDS011;64763;48.928;8.474;2023-04-25T07:37:17;6.45;;;4.45;;
76065;SDS011;64763;48.928;8.474;2023-04-25T07:39:43;6.32;;;4.45;;
76065;SDS011;64763;48.928;8.474;2023-04-25T07:42:12;7.63;;;5.32;;
76065;SDS011;64763;48.928;8.474;2023-04-25T07:44:38;7.53;;;4.82;;
76065;SDS011;64763;48.928;8.474;2023-04-25T07:47:05;9.48;;;4.85;;
76065;SDS011;64763;48.928;8.474;2023-04-25T07:49:34;7.78;;;4.85;;
76065;SDS011;64763;48.928;8.474;2023-04-25T07:52:01;8.77;;;4.53;;
76065;SDS011;64763;48.928;8.474;2023-04-25T07:54:27;9.18;;;5.60;;
76065;SDS011;64763;48.928;8.474;2023-04-25T07:56:53;9.60;;;5.70;;
76065;SDS011;64763;48.928;8.474;2023-04-25T07:59:18;9.65;;;5.90;;
76065;SDS011;64763;48.928;8.474;2023-04-25T08:01:44;7.78;;;5.20;;
76065;SDS011;64763;48.928;8.474;2023-04-25T08:04:09;7.85;;;5.20;;
76065;SDS011;64763;48.928;8.474;2023-04-25T08:06:35;10.40;;;6.18;;
76065;SDS011;64763;48.928;8.474;2023-04-25T08:09:01;8.65;;;5.55;;
76065;SDS011;64763;48.928;8.474;2023-04-25T08:11:26;9.52;;;5.38;;
76065;SDS011;64763;48.928;8.474;2023-04-25T08:13:51;9.10;;;5.72;;
76065;SDS011;64763;48.928;8.474;2023-04-25T08:16:17;8.50;;;5.18;;
76065;SDS011;64763;48.928;8.474;2023-04-25T08:18:42;9.88;;;5.88;;
76065;SDS011;64763;48.928;8.474;2023-04-25T08:21:08;8.95;;;5.63;;
76065;SDS011;64763;48.928;8.474;2023-04-25T08:23:36;7.70;;;5.53;;
76065;SDS011;64763;48.928;8.474;2023-04-25T08:26:01;11.45;;;5.32;;
76065;SDS011;64763;48.928;8.474;2023-04-25T08:28:27;10.05;;;5.72;;
76065;SDS011;64763;48.928;8.474;2023-04-25T08:30:53;8.95;;;6.00;;
76065;SDS011;64763;48.928;8.474;2023-04-25T08:33:18;8.35;;;5.18;;
76065;SDS011;64763;48.928;8.474;2023-04-25T08:35:44;7.78;;;4.72;;
76065;SDS011;64763;48.928;8.474;2023-04-25T08:38:09;6.57;;;4.88;;
76065;SDS011;64763;48.928;8.474;2023-04-25T08:40:35;8.27;;;5.57;;
76065;SDS011;64763;48.928;8.474;2023-04-25T08:43:02;8.73;;;5.28;;
76065;SDS011;64763;48.928;8.474;2023-04-25T08:45:28;9.93;;;6.15;;
76065;SDS011;64763;48.928;8.474;2023-04-25T08:47:56;8.27;;;5.55;;
76065;SDS011;64763;48.928;8.474;2023-04-25T08:50:22;11.15;;;6.43;;
76065;SDS011;64763;48.928;8.474;2023-04-25T08:52:50;11.13;;;7.25;;
76065;SDS011;64763;48.928;8.474;2023-04-25T08:55:18;11.82;;;7.82;;
76065;SDS011;64763;48.928;8.474;2023-04-25T08:57:43;10.35;;;6.70;;
76065;SDS011;64763;48.928;8.474;2023-04-25T09:00:10;12.23;;;7.32;;
76065;SDS011;64763;48.928;8.474;2023-04-25T09:02:37;11.85;;;7.47;;
76065;SDS011;64763;48.928;8.474;2023-04-25T09:05:02;11.55;;;7.05;;
76065;SDS011;64763;48.928;8.474;2023-04-25T09:07:29;9.77;;;6.35;;
76065;SDS011;64763;48.928;8.474;2023-04-25T09:09:55;10.95;;;7.28;;
76065;SDS011;64763;48.928;8.474;2023-04-25T09:12:20;10.40;;;5.95;;
76065;SDS011;64763;48.928;8.474;2023-04-25T09:15:03;7.40;;;4.93;;
76065;SDS011;64763;48.928;8.474;2023-04-25T09:17:32;6.28;;;4.10;;
76065;SDS011;64763;48.928;8.474;2023-04-25T09:20:10;5.05;;;3.70;;
76065;SDS011;64763;48.928;8.474;2023-04-25T09:22:37;6.70;;;4.32;;
76065;SDS011;64763;48.928;8.474;2023-04-25T09:25:03;4.72;;;3.35;;
76065;SDS011;64763;48.928;8.474;2023-04-25T09:27:32;4.78;;;3.22;;
76065;SDS011;64763;48.928;8.474;2023-04-25T09:29:58;4.20;;;2.85;;
76065;SDS011;64763;48.928;8.474;2023-04-25T09:32:27;4.03;;;2.92;;
76065;SDS011;64763;48.928;8.474;2023-04-25T09:34:53;4.70;;;3.20;;
76065;SDS011;64763;48.928;8.474;2023-04-25T09:37:23;5.40;;;3.42;;
76065;SDS011;64763;48.928;8.474;2023-04-25T09:39:57;5.35;;;3.63;;
76065;SDS011;64763;48.928;8.474;2023-04-25T09:42:31;5.18;;;3.15;;
76065;SDS011;64763;48.928;8.474;2023-04-25T09:44:57;4.60;;;2.78;;
76065;SDS011;64763;48.928;8.474;2023-04-25T09:47:24;6.10;;;2.60;;
76065;SDS011;64763;48.928;8.474;2023-04-25T09:49:50;4.53;;;2.67;;
76065;SDS011;64763;48.928;8.474;2023-04-25T09:52:17;5.10;;;3.50;;
76065;SDS011;64763;48.928;8.474;2023-04-25T09:54:47;5.82;;;3.95;;
76065;SDS011;64763;48.928;8.474;2023-04-25T09:57:16;7.03;;;4.57;;
76065;SDS011;64763;48.928;8.474;2023-04-25T09:59:49;7.47;;;4.68;;
76065;SDS011;64763;48.928;8.474;2023-04-25T10:02:17;7.60;;;4.85;;
76065;SDS011;64763;48.928;8.474;2023-04-25T10:04:50;7.82;;;4.82;;
76065;SDS011;64763;48.928;8.474;2023-04-25T10:07:18;7.18;;;4.70;;
76065;SDS011;64763;48.928;8.474;2023-04-25T10:09:45;10.80;;;6.10;;
76065;SDS011;64763;48.928;8.474;2023-04-25T10:12:13;12.88;;;6.60;;
76065;SDS011;64763;48.928;8.474;2023-04-25T10:14:38;9.30;;;5.13;;
76065;SDS011;64763;48.928;8.474;2023-04-25T10:17:05;7.85;;;4.93;;
76065;SDS011;64763;48.928;8.474;2023-04-25T10:19:31;7.55;;;4.68;;
76065;SDS011;64763;48.928;8.474;2023-04-25T10:22:04;8.25;;;5.18;;
76065;SDS011;64763;48.928;8.474;2023-04-25T10:24:38;9.18;;;5.20;;
76065;SDS011;64763;48.928;8.474;2023-04-25T10:27:04;9.43;;;6.32;;
76065;SDS011;64763;48.928;8.474;2023-04-25T10:29:30;11.57;;;7.20;;
76065;SDS011;64763;48.928;8.474;2023-04-25T10:31:55;11.35;;;6.45;;
76065;SDS011;64763;48.928;8.474;2023-04-25T10:34:37;10.40;;;6.28;;
76065;SDS011;64763;48.928;8.474;2023-04-25T10:37:04;11.27;;;6.15;;
76065;SDS011;64763;48.928;8.474;2023-04-25T10:39:31;10.32;;;6.50;;
76065;SDS011;64763;48.928;8.474;2023-04-25T10:41:57;10.00;;;6.53;;
76065;SDS011;64763;48.928;8.474;2023-04-25T10:44:27;11.05;;;6.28;;
76065;SDS011;64763;48.928;8.474;2023-04-25T10:46:55;9.85;;;6.30;;
76065;SDS011;64763;48.928;8.474;2023-04-25T10:49:31;8.13;;;5.40;;
76065;SDS011;64763;48.928;8.474;2023-04-25T10:52:10;8.18;;;5.60;;
76065;SDS011;64763;48.928;8.474;2023-04-25T10:54:46;13.27;;;6.40;;
76065;SDS011;64763;48.928;8.474;2023-04-25T10:57:28;9.73;;;5.82;;
76065;SDS011;64763;48.928;8.474;2023-04-25T11:02:31;10.45;;;6.50;;
76065;SDS011;64763;48.928;8.474;2023-04-25T11:04:56;8.27;;;5.55;;
76065;SDS011;64763;48.928;8.474;2023-04-25T11:07:39;9.43;;;5.70;;
76065;SDS011;64763;48.928;8.474;2023-04-25T11:10:08;8.27;;;5.43;;
76065;SDS011;64763;48.928;8.474;2023-04-25T11:12:34;11.02;;;6.85;;
76065;SDS011;64763;48.928;8.474;2023-04-25T11:15:06;7.40;;;5.53;;
76065;SDS011;64763;48.928;8.474;2023-04-25T11:17:32;7.55;;;5.30;;
76065;SDS011;64763;48.928;8.474;2023-04-25T11:19:58;5.80;;;4.30;;
76065;SDS011;64763;48.928;8.474;2023-04-25T11:22:26;4.65;;;3.33;;
76065;SDS011;64763;48.928;8.474;2023-04-25T11:24:52;4.80;;;2.72;;
76065;SDS011;64763;48.928;8.474;2023-04-25T11:27:17;4.30;;;3.22;;
76065;SDS011;64763;48.928;8.474;2023-04-25T11:29:43;4.20;;;2.80;;
76065;SDS011;64763;48.928;8.474;2023-04-25T11:32:08;4.60;;;3.25;;
76065;SDS011;64763;48.928;8.474;2023-04-25T11:34:34;5.63;;;3.05;;
76065;SDS011;64763;48.928;8.474;2023-04-25T11:37:00;4.57;;;2.75;;
76065;SDS011;64763;48.928;8.474;2023-04-25T11:39:27;3.67;;;2.58;;
76065;SDS011;64763;48.928;8.474;2023-04-25T11:41:53;5.03;;;2.72;;
76065;SDS011;64763;48.928;8.474;2023-04-25T11:44:19;3.83;;;2.50;;
76065;SDS011;64763;48.928;8.474;2023-04-25T11:46:45;3.45;;;2.50;;
76065;SDS011;64763;48.928;8.474;2023-04-25T11:49:11;4.00;;;2.60;;
76065;SDS011;64763;48.928;8.474;2023-04-25T11:51:44;4.30;;;2.50;;
76065;SDS011;64763;48.928;8.474;2023-04-25T11:54:10;3.00;;;1.95;;
76065;SDS011;64763;48.928;8.474;2023-04-25T11:56:36;3.53;;;1.80;;
76065;SDS011;64763;48.928;8.474;2023-04-25T11:59:03;2.80;;;2.20;;
76065;SDS011;64763;48.928;8.474;2023-04-25T12:01:29;3.20;;;1.50;;
76065;SDS011;64763;48.928;8.474;2023-04-25T12:04:09;2.88;;;1.92;;
76065;SDS011;64763;48.928;8.474;2023-04-25T12:06:38;3.15;;;1.90;;
76065;SDS011;64763;48.928;8.474;2023-04-25T12:09:06;3.38;;;2.08;;
76065;SDS011;64763;48.928;8.474;2023-04-25T12:11:35;4.07;;;2.10;;
76065;SDS011;64763;48.928;8.474;2023-04-25T12:14:05;3.38;;;2.33;;
76065;SDS011;64763;48.928;8.474;2023-04-25T12:16:52;5.53;;;2.80;;
76065;SDS011;64763;48.928;8.474;2023-04-25T12:19:17;5.82;;;3.25;;
76065;SDS011;64763;48.928;8.474;2023-04-25T12:21:44;4.65;;;2.88;;
76065;SDS011;64763;48.928;8.474;2023-04-25T12:26:49;5.32;;;3.45;;
76065;SDS011;64763;48.928;8.474;2023-04-25T12:29:26;5.55;;;3.90;;
76065;SDS011;64763;48.928;8.474;2023-04-25T12:31:52;8.52;;;5.13;;
76065;SDS011;64763;48.928;8.474;2023-04-25T12:34:18;7.50;;;5.13;;
76065;SDS011;64763;48.928;8.474;2023-04-25T12:36:44;7.03;;;4.38;;
76065;SDS011;64763;48.928;8.474;2023-04-25T12:39:20;9.50;;;5.22;;
76065;SDS011;64763;48.928;8.474;2023-04-25T12:41:51;10.50;;;5.47;;
76065;SDS011;64763;48.928;8.474;2023-04-25T12:44:20;9.00;;;5.75;;
76065;SDS011;64763;48.928;8.474;2023-04-25T12:46:46;7.22;;;5.15;;
76065;SDS011;64763;48.928;8.474;2023-04-25T12:49:11;9.88;;;6.13;;
76065;SDS011;64763;48.928;8.474;2023-04-25T12:51:37;8.77;;;5.13;;
76065;SDS011;64763;48.928;8.474;2023-04-25T12:54:03;9.15;;;5.20;;
76065;SDS011;64763;48.928;8.474;2023-04-25T12:56:29;10.10;;;5.28;;
76065;SDS011;64763;48.928;8.474;2023-04-25T12:58:56;11.35;;;5.63;;
76065;SDS011;64763;48.928;8.474;2023-04-25T13:01:21;10.27;;;5.18;;
76065;SDS011;64763;48.928;8.474;2023-04-25T13:03:47;9.45;;;6.05;;
76065;SDS011;64763;48.928;8.474;2023-04-25T13:06:16;8.02;;;5.28;;
76065;SDS011;64763;48.928;8.474;2023-04-25T13:08:42;10.40;;;6.10;;
76065;SDS011;64763;48.928;8.474;2023-04-25T13:11:07;12.40;;;6.07;;
76065;SDS011;64763;48.928;8.474;2023-04-25T13:13:33;6.40;;;4.72;;
76065;SDS011;64763;48.928;8.474;2023-04-25T13:16:03;8.30;;;5.30;;
76065;SDS011;64763;48.928;8.474;2023-04-25T13:18:29;9.07;;;5.20;;
76065;SDS011;64763;48.928;8.474;2023-04-25T13:20:54;8.52;;;5.68;;
76065;SDS011;64763;48.928;8.474;2023-04-25T13:23:20;8.85;;;5.60;;
76065;SDS011;64763;48.928;8.474;2023-04-25T13:25:46;9.25;;;5.82;;
76065;SDS011;64763;48.928;8.474;2023-04-25T13:28:12;7.72;;;4.85;;
76065;SDS011;64763;48.928;8.474;2023-04-25T13:30:37;7.07;;;4.72;;
76065;SDS011;64763;48.928;8.474;2023-04-25T13:33:03;9.73;;;5.35;;
76065;SDS011;64763;48.928;8.474;2023-04-25T13:35:29;8.63;;;4.78;;
76065;SDS011;64763;48.928;8.474;2023-04-25T13:37:55;8.07;;;4.60;;
76065;SDS011;64763;48.928;8.474;2023-04-25T13:40:20;8.65;;;4.82;;
76065;SDS011;64763;48.928;8.474;2023-04-25T13:42:46;7.97;;;5.28;;
76065;SDS011;64763;48.928;8.474;2023-04-25T13:45:11;5.05;;;4.03;;
76065;SDS011;64763;48.928;8.474;2023-04-25T13:47:37;5.95;;;3.97;;
76065;SDS011;64763;48.928;8.474;2023-04-25T13:50:03;5.22;;;3.60;;
76065;SDS011;64763;48.928;8.474;2023-04-25T13:52:30;7.50;;;4.38;;
76065;SDS011;64763;48.928;8.474;2023-04-25T13:54:56;5.20;;;3.95;;
76065;SDS011;64763;48.928;8.474;2023-04-25T13:57:21;6.82;;;3.90;;
76065;SDS011;64763;48.928;8.474;2023-04-25T13:59:46;4.55;;;2.72;;
76065;SDS011;64763;48.928;8.474;2023-04-25T14:02:12;4.65;;;2.78;;
76065;SDS011;64763;48.928;8.474;2023-04-25T14:04:37;4.57;;;2.55;;
76065;SDS011;64763;48.928;8.474;2023-04-25T14:07:03;3.08;;;2.03;;
76065;SDS011;64763;48.928;8.474;2023-04-25T14:09:28;3.00;;;2.00;;
76065;SDS011;64763;48.928;8.474;2023-04-25T14:11:54;3.03;;;1.85;;
76065;SDS011;64763;48.928;8.474;2023-04-25T14:14:20;2.90;;;2.42;;
76065;SDS011;64763;48.928;8.474;2023-04-25T14:16:46;3.53;;;2.63;;
76065;SDS011;64763;48.928;8.474;2023-04-25T14:19:15;3.28;;;2.42;;
76065;SDS011;64763;48.928;8.474;2023-04-25T14:21:41;4.70;;;2.72;;
76065;SDS011;64763;48.928;8.474;2023-04-25T14:24:06;4.55;;;2.40;;
76065;SDS011;64763;48.928;8.474;2023-04-25T14:26:33;3.88;;;2.63;;
76065;SDS011;64763;48.928;8.474;2023-04-25T14:28:58;4.40;;;2.50;;
76065;SDS011;64763;48.928;8.474;2023-04-25T14:31:24;3.58;;;2.33;;
76065;SDS011;64763;48.928;8.474;2023-04-25T14:33:49;5.45;;;3.35;;
76065;SDS011;64763;48.928;8.474;2023-04-25T14:36:15;4.18;;;2.70;;
76065;SDS011;64763;48.928;8.474;2023-04-25T14:38:40;6.85;;;3.17;;
76065;SDS011;64763;48.928;8.474;2023-04-25T14:41:05;5.32;;;3.28;;
76065;SDS011;64763;48.928;8.474;2023-04-25T14:43:31;4.65;;;3.47;;
76065;SDS011;64763;48.928;8.474;2023-04-25T14:45:56;5.53;;;3.55;;